Time;durP1;ratioP1;P1;durP2;ratioP2;P2;SDS_P1;SDS_P2;PMS_P1;PMS_P2;Temp;Humidity;BMP_temperature;BMP_pressure;BME280_temperature;BME280_humidity;BME280_pressure;Samples;Min_cycle;Max_cycle;Signal;HPM_P1;HPM_P2
2023/03/18 00:00:15;;;;;;;;;1.80;1.00;;;;;;;;5067179;29;8808;-78
2023/03/18 00:02:46;;;;;;;;;10.00;10.00;;;;;;;;5050265;29;8800;-78
2023/03/18 00:05:18;;;;;;;;;68.20;59.00;;;;;;;;5050190;29;8903;-77
2023/03/18 00:07:49;;;;;;;;;11.80;10.60;;;;;;;;5034854;29;8811;-77
2023/03/18 00:10:20;;;;;;;;;6.20;5.60;;;;;;;;5066224;29;8832;-78
2023/03/18 00:12:52;;;;;;;;;4.00;4.00;;;;;;;;5066575;29;8825;-77
2023/03/18 00:15:23;;;;;;;;;46.40;43.20;;;;;;;;5034567;29;9893;-76
2023/03/18 00:17:54;;;;;;;;;8.80;8.60;;;;;;;;5049845;29;9556;-76
2023/03/18 00:20:37;;;;;;;;;11.80;10.40;;;;;;;;5066864;29;8788;-76
2023/03/18 00:23:08;;;;;;;;;1.60;1.60;;;;;;;;5050255;29;8808;-76
2023/03/18 00:25:39;;;;;;;;;4.60;4.60;;;;;;;;5067055;29;8781;-76
2023/03/18 00:28:10;;;;;;;;;16.20;16.20;;;;;;;;5049764;29;8768;-76
2023/03/18 00:30:42;;;;;;;;;10.40;10.40;;;;;;;;5050440;29;8821;-75
2023/03/18 00:33:13;;;;;;;;;6.60;5.40;;;;;;;;5049668;29;8804;-75
2023/03/18 00:35:45;;;;;;;;;11.00;11.00;;;;;;;;5034299;29;8804;-75
2023/03/18 00:38:23;;;;;;;;;19.40;19.40;;;;;;;;5034180;29;8820;-76
2023/03/18 00:41:03;;;;;;;;;12.20;12.20;;;;;;;;5066201;29;8935;-76
2023/03/18 00:43:44;;;;;;;;;11.80;11.80;;;;;;;;5034189;29;8804;-76
2023/03/18 00:46:17;;;;;;;;;14.80;14.80;;;;;;;;5048789;29;8831;-77
2023/03/18 00:48:48;;;;;;;;;26.40;26.40;;;;;;;;5049524;29;8950;-77
2023/03/18 00:51:20;;;;;;;;;31.75;30.50;;;;;;;;5033575;29;8846;-76
2023/03/18 00:53:52;;;;;;;;;12.00;12.00;;;;;;;;5049472;29;9669;-76
2023/03/18 00:56:25;;;;;;;;;25.00;23.20;;;;;;;;5049448;29;8951;-77
2023/03/18 00:58:56;;;;;;;;;20.00;20.00;;;;;;;;5034240;29;8806;-77
2023/03/18 01:01:27;;;;;;;;;0.00;0.00;;;;;;;;5049269;29;9508;-77
2023/03/18 01:03:58;;;;;;;;;27.00;27.00;;;;;;;;5049148;29;8788;-77
2023/03/18 01:06:34;;;;;;;;;3.40;3.00;;;;;;;;5033593;29;8804;-77
2023/03/18 01:09:07;;;;;;;;;19.80;19.40;;;;;;;;5065633;29;8780;-78
2023/03/18 01:11:57;;;;;;;;;20.60;19.20;;;;;;;;5049074;29;8850;-76
2023/03/18 01:14:28;;;;;;;;;15.20;14.20;;;;;;;;5065676;29;8788;-76
2023/03/18 01:16:59;;;;;;;;;8.20;8.20;;;;;;;;5033615;29;8969;-76
2023/03/18 01:19:30;;;;;;;;;3.25;3.25;;;;;;;;5049107;29;8907;-76
2023/03/18 01:22:02;;;;;;;;;14.80;14.80;;;;;;;;5033605;29;12218;-76
2023/03/18 01:24:35;;;;;;;;;11.60;11.60;;;;;;;;5048598;29;8804;-77
2023/03/18 01:27:06;;;;;;;;;4.00;4.00;;;;;;;;5065967;29;8815;-76
2023/03/18 01:29:39;;;;;;;;;1.20;1.20;;;;;;;;5033475;29;8820;-76
2023/03/18 01:32:18;;;;;;;;;3.00;3.00;;;;;;;;5033658;29;8864;-77
2023/03/18 01:34:49;;;;;;;;;1.00;1.00;;;;;;;;5033337;29;8822;-77
2023/03/18 01:37:20;;;;;;;;;1.60;1.60;;;;;;;;5033575;29;9431;-76
2023/03/18 01:39:57;;;;;;;;;0.80;0.80;;;;;;;;5033403;29;8785;-76
2023/03/18 01:42:28;;;;;;;;;4.00;4.00;;;;;;;;5033665;29;8821;-76
2023/03/18 01:45:16;;;;;;;;;13.60;13.60;;;;;;;;5048373;29;8801;-76
2023/03/18 01:47:49;;;;;;;;;11.40;11.40;;;;;;;;5033427;29;8962;-76
2023/03/18 01:50:38;;;;;;;;;13.20;12.00;;;;;;;;5057515;29;8936;-76
2023/03/18 01:53:11;;;;;;;;;8.20;8.20;;;;;;;;5033252;29;8804;-77
2023/03/18 01:55:43;;;;;;;;;16.80;16.80;;;;;;;;5048306;29;8805;-77
2023/03/18 01:58:19;;;;;;;;;7.00;7.00;;;;;;;;5065113;29;8792;-77
2023/03/18 02:00:53;;;;;;;;;15.40;15.40;;;;;;;;5049020;29;8812;-76
2023/03/18 02:03:26;;;;;;;;;12.80;12.80;;;;;;;;5048260;29;8839;-80
2023/03/18 02:05:58;;;;;;;;;6.00;6.00;;;;;;;;5032920;29;9512;-79
2023/03/18 02:08:29;;;;;;;;;10.00;10.00;;;;;;;;5048284;29;8804;-80
2023/03/18 02:11:01;;;;;;;;;3.40;3.40;;;;;;;;5032936;29;8873;-80
2023/03/18 02:13:52;;;;;;;;;3.60;3.60;;;;;;;;5048494;29;8784;-76
2023/03/18 02:16:24;;;;;;;;;1.00;1.00;;;;;;;;5051928;29;9575;-76
2023/03/18 02:18:59;;;;;;;;;5.20;5.20;;;;;;;;5052513;29;8801;-76
2023/03/18 02:21:34;;;;;;;;;6.00;6.00;;;;;;;;5052443;29;8884;-76
2023/03/18 02:24:36;;;;;;;;;5.20;5.20;;;;;;;;5069258;29;8808;-75
2023/03/18 02:27:13;;;;;;;;;3.20;3.20;;;;;;;;5032786;29;8810;-75
2023/03/18 02:29:47;;;;;;;;;5.80;5.80;;;;;;;;5033137;29;8873;-75
2023/03/18 02:32:25;;;;;;;;;11.80;11.80;;;;;;;;5048699;29;8914;-75
2023/03/18 02:34:58;;;;;;;;;7.60;7.60;;;;;;;;5049330;29;8821;-76
2023/03/18 02:37:29;;;;;;;;;6.80;6.80;;;;;;;;5017456;29;8797;-76
2023/03/18 02:40:30;;;;;;;;;3.60;3.60;;;;;;;;5053532;29;8824;-76
2023/03/18 02:43:21;;;;;;;;;7.80;7.80;;;;;;;;5036545;29;8816;-76
2023/03/18 02:46:25;;;;;;;;;11.00;9.60;;;;;;;;5035195;29;8790;-76
2023/03/18 02:49:01;;;;;;;;;9.80;9.80;;;;;;;;5032602;29;9562;-76
2023/03/18 02:51:35;;;;;;;;;8.20;8.20;;;;;;;;5047935;29;8859;-76
2023/03/18 02:54:09;;;;;;;;;10.40;10.40;;;;;;;;5016993;29;8894;-76
2023/03/18 02:56:41;;;;;;;;;9.00;9.00;;;;;;;;5052615;29;9588;-76
2023/03/18 02:59:31;;;;;;;;;3.80;3.80;;;;;;;;5038668;29;8788;-76
2023/03/18 03:02:20;;;;;;;;;8.00;8.00;;;;;;;;5053091;29;8878;-74
2023/03/18 03:04:51;;;;;;;;;5.20;4.60;;;;;;;;5035596;29;8808;-75
2023/03/18 03:07:41;;;;;;;;;7.40;7.40;;;;;;;;5054213;29;8815;-75
2023/03/18 03:10:13;;;;;;;;;3.60;3.60;;;;;;;;5068094;29;8812;-75
2023/03/18 03:12:46;;;;;;;;;2.60;2.60;;;;;;;;5051342;29;9515;-75
2023/03/18 03:15:23;;;;;;;;;3.40;3.40;;;;;;;;5051714;29;9512;-76
2023/03/18 03:18:13;;;;;;;;;13.40;13.40;;;;;;;;5053324;29;8915;-78
2023/03/18 03:20:44;;;;;;;;;5.00;5.00;;;;;;;;5051170;29;8793;-78
2023/03/18 03:23:16;;;;;;;;;3.80;3.80;;;;;;;;5034948;29;8843;-79
2023/03/18 03:25:53;;;;;;;;;23.00;20.60;;;;;;;;5067019;29;8903;-79
2023/03/18 03:28:24;;;;;;;;;4.00;4.00;;;;;;;;5035237;29;8993;-79
2023/03/18 03:30:57;;;;;;;;;32.80;32.80;;;;;;;;5050728;29;8848;-80
2023/03/18 03:33:28;;;;;;;;;19.20;19.20;;;;;;;;5035588;29;8808;-81
2023/03/18 03:36:00;;;;;;;;;2.60;2.60;;;;;;;;5051169;29;9520;-81
2023/03/18 03:38:31;;;;;;;;;14.75;14.75;;;;;;;;5050723;29;8805;-81
2023/03/18 03:41:04;;;;;;;;;11.20;10.40;;;;;;;;5035027;29;11534;-82
2023/03/18 03:43:39;;;;;;;;;11.60;11.60;;;;;;;;5035218;29;8805;-82
2023/03/18 03:46:10;;;;;;;;;8.20;7.00;;;;;;;;5035238;29;8923;-81
2023/03/18 03:48:42;;;;;;;;;4.00;4.00;;;;;;;;5038564;29;8792;-79
2023/03/18 03:51:16;;;;;;;;;8.00;8.00;;;;;;;;5054618;29;8971;-81
2023/03/18 03:53:50;;;;;;;;;10.00;10.00;;;;;;;;5035316;29;8784;-80
2023/03/18 03:56:21;;;;;;;;;5.60;5.60;;;;;;;;5050002;29;8841;-81
2023/03/18 03:58:52;;;;;;;;;4.80;4.80;;;;;;;;5034356;29;8792;-75
2023/03/18 04:01:25;;;;;;;;;3.60;3.60;;;;;;;;5019638;29;8818;-75
2023/03/18 04:04:01;;;;;;;;;3.60;3.60;;;;;;;;5050671;29;9540;-75
2023/03/18 04:06:35;;;;;;;;;14.20;14.20;;;;;;;;5035149;29;8883;-75
2023/03/18 04:09:06;;;;;;;;;1.40;1.40;;;;;;;;5031101;29;8829;-76
2023/03/18 04:11:39;;;;;;;;;19.00;19.00;;;;;;;;5049210;29;9006;-76
2023/03/18 04:14:11;;;;;;;;;4.40;4.40;;;;;;;;5018706;29;8832;-75
2023/03/18 04:16:43;;;;;;;;;13.80;12.60;;;;;;;;5033326;29;8872;-75
2023/03/18 04:19:15;;;;;;;;;22.80;22.20;;;;;;;;5018692;29;8808;-79
2023/03/18 04:21:46;;;;;;;;;28.60;27.40;;;;;;;;5032716;29;8840;-76
2023/03/18 04:24:18;;;;;;;;;18.60;18.00;;;;;;;;5014455;29;8837;-77
2023/03/18 04:26:50;;;;;;;;;7.00;7.00;;;;;;;;5046294;29;8791;-81
2023/03/18 04:29:22;;;;;;;;;39.80;39.60;;;;;;;;5031561;29;8798;-76
2023/03/18 04:31:53;;;;;;;;;21.20;21.20;;;;;;;;5046283;29;8841;-78
2023/03/18 04:34:26;;;;;;;;;23.00;23.00;;;;;;;;5025928;29;8804;-77
2023/03/18 04:36:58;;;;;;;;;18.60;18.60;;;;;;;;5033605;29;8816;-78
2023/03/18 04:39:31;;;;;;;;;25.80;25.00;;;;;;;;5033381;29;8824;-77
2023/03/18 04:42:02;;;;;;;;;18.20;18.20;;;;;;;;5033458;29;8805;-79
2023/03/18 04:44:33;;;;;;;;;19.80;19.80;;;;;;;;5065487;29;8807;-78
2023/03/18 04:47:04;;;;;;;;;13.00;12.40;;;;;;;;5048791;29;8800;-76
2023/03/18 04:49:36;;;;;;;;;33.60;33.20;;;;;;;;5034062;29;8818;-73
2023/03/18 04:52:09;;;;;;;;;41.40;37.00;;;;;;;;5032715;29;8856;-74
2023/03/18 04:54:59;;;;;;;;;11.20;9.00;;;;;;;;5046521;29;8823;-74
2023/03/18 04:57:30;;;;;;;;;13.20;13.00;;;;;;;;5048973;29;8808;-75
2023/03/18 05:00:03;;;;;;;;;14.80;13.40;;;;;;;;5049186;29;8805;-76
2023/03/18 05:02:35;;;;;;;;;16.00;15.40;;;;;;;;5033824;29;9508;-74
2023/03/18 05:05:07;;;;;;;;;16.00;16.00;;;;;;;;5017937;29;8807;-77
2023/03/18 05:07:43;;;;;;;;;37.60;36.20;;;;;;;;5036988;29;8856;-74
2023/03/18 05:10:18;;;;;;;;;14.80;13.60;;;;;;;;5068768;29;9498;-73
2023/03/18 05:12:49;;;;;;;;;38.00;38.00;;;;;;;;5061355;29;9594;-77
2023/03/18 05:15:27;;;;;;;;;9.60;9.60;;;;;;;;5046039;29;9593;-75
2023/03/18 05:18:01;;;;;;;;;16.40;16.40;;;;;;;;5046351;29;8954;-77
2023/03/18 05:20:32;;;;;;;;;16.60;16.00;;;;;;;;5031623;29;8850;-74
2023/03/18 05:23:04;;;;;;;;;60.00;52.60;;;;;;;;5016476;29;8970;-75
2023/03/18 05:25:46;;;;;;;;;51.00;47.80;;;;;;;;5046809;29;8824;-75
2023/03/18 05:28:17;;;;;;;;;12.40;12.40;;;;;;;;5030989;29;8908;-76
2023/03/18 05:30:57;;;;;;;;;22.60;21.40;;;;;;;;5047152;29;8870;-76
2023/03/18 05:33:28;;;;;;;;;29.00;27.20;;;;;;;;5031103;29;8887;-77
2023/03/18 05:36:01;;;;;;;;;37.60;37.60;;;;;;;;5052675;29;8855;-81
2023/03/18 05:38:41;;;;;;;;;19.60;19.60;;;;;;;;5032495;29;8911;-84
2023/03/18 05:41:13;;;;;;;;;25.60;25.60;;;;;;;;5034307;29;8835;-83
2023/03/18 05:43:48;;;;;;;;;44.00;39.60;;;;;;;;5092539;23;8897;-83
2023/03/18 05:46:22;;;;;;;;;15.60;15.60;;;;;;;;5223924;23;8892;-84
2023/03/18 05:49:18;;;;;;;;;30.80;30.40;;;;;;;;5072484;29;8834;-82
2023/03/18 05:52:22;;;;;;;;;22.80;22.60;;;;;;;;5324651;23;8945;-86
2023/03/18 05:58:56;;;;;;;;;63.40;51.60;;;;;;;;5087113;29;8951;-83
2023/03/18 06:05:23;;;;;;;;;55.40;45.60;;;;;;;;5068114;29;8828;-85
2023/03/18 06:07:56;;;;;;;;;91.20;69.40;;;;;;;;5057398;29;8818;-84
2023/03/18 06:10:48;;;;;;;;;82.80;63.80;;;;;;;;5057537;29;8946;-85
2023/03/18 06:13:23;;;;;;;;;84.60;68.60;;;;;;;;5064606;29;8871;-83
2023/03/18 06:15:56;;;;;;;;;31.00;30.80;;;;;;;;5072862;29;8812;-80
2023/03/18 06:18:27;;;;;;;;;37.80;34.20;;;;;;;;5055707;29;8824;-82
2023/03/18 06:21:00;;;;;;;;;27.00;27.00;;;;;;;;5037348;29;8909;-81
2023/03/18 06:23:32;;;;;;;;;7.00;7.00;;;;;;;;5020734;29;8870;-81
2023/03/18 06:26:06;;;;;;;;;10.60;10.60;;;;;;;;5036550;29;8850;-81
2023/03/18 06:28:44;;;;;;;;;13.60;13.60;;;;;;;;5030778;29;8827;-80
2023/03/18 06:31:17;;;;;;;;;14.80;14.60;;;;;;;;5033349;29;8844;-80
2023/03/18 06:33:49;;;;;;;;;14.00;11.20;;;;;;;;5019583;29;8825;-80
2023/03/18 06:36:24;;;;;;;;;15.20;14.00;;;;;;;;5035945;29;8834;-80
2023/03/18 06:38:58;;;;;;;;;11.00;11.00;;;;;;;;5018555;29;8802;-73
2023/03/18 06:41:31;;;;;;;;;7.60;7.60;;;;;;;;5046297;29;8810;-80
2023/03/18 06:44:24;;;;;;;;;41.40;41.20;;;;;;;;5020682;29;8828;-75
2023/03/18 06:46:58;;;;;;;;;9.00;9.00;;;;;;;;5028027;29;8862;-82
2023/03/18 06:49:31;;;;;;;;;56.20;49.40;;;;;;;;5018674;29;8818;-81
2023/03/18 06:52:13;;;;;;;;;37.20;35.80;;;;;;;;5032371;29;8822;-81
2023/03/18 06:54:48;;;;;;;;;11.20;11.20;;;;;;;;5034096;29;8838;-80
2023/03/18 06:57:22;;;;;;;;;35.60;35.60;;;;;;;;5048025;29;8919;-81
2023/03/18 06:59:55;;;;;;;;;13.20;13.20;;;;;;;;5143139;23;8923;-84
2023/03/18 07:02:28;;;;;;;;;10.80;10.80;;;;;;;;5061842;29;8818;-84
2023/03/18 07:05:03;;;;;;;;;10.80;10.80;;;;;;;;5070904;29;9023;-74
2023/03/18 07:07:37;;;;;;;;;27.00;27.00;;;;;;;;5074195;29;9514;-75
2023/03/18 07:10:12;;;;;;;;;32.40;32.40;;;;;;;;5074172;29;8804;-74
2023/03/18 07:12:43;;;;;;;;;96.50;77.75;;;;;;;;5085864;29;8861;-74
2023/03/18 07:15:15;;;;;;;;;11.20;11.00;;;;;;;;5089713;29;8802;-75
2023/03/18 07:17:46;;;;;;;;;12.20;12.20;;;;;;;;5106383;29;8795;-75
2023/03/18 07:20:18;;;;;;;;;33.20;32.40;;;;;;;;5089541;29;8981;-75
2023/03/18 07:22:50;;;;;;;;;6.00;5.40;;;;;;;;5089983;29;8917;-76
2023/03/18 07:25:21;;;;;;;;;12.00;12.00;;;;;;;;5075893;29;8804;-73
2023/03/18 07:27:53;;;;;;;;;32.60;31.60;;;;;;;;5074274;29;8833;-73
2023/03/18 07:30:24;;;;;;;;;7.60;7.60;;;;;;;;5080349;29;8917;-73
2023/03/18 07:32:55;;;;;;;;;29.75;29.75;;;;;;;;5089997;29;8922;-73
2023/03/18 07:35:27;;;;;;;;;3.20;3.20;;;;;;;;5089456;29;8791;-73
2023/03/18 07:37:58;;;;;;;;;7.80;7.40;;;;;;;;5058060;29;8822;-73
2023/03/18 07:40:29;;;;;;;;;59.20;50.60;;;;;;;;5089231;29;8799;-75
2023/03/18 07:43:01;;;;;;;;;8.80;8.80;;;;;;;;5089199;29;9511;-72
2023/03/18 07:45:32;;;;;;;;;12.00;12.00;;;;;;;;5098748;29;8913;-73
2023/03/18 07:48:21;;;;;;;;;27.00;27.00;;;;;;;;5086666;29;8798;-72
2023/03/18 07:50:52;;;;;;;;;28.20;25.80;;;;;;;;5086144;29;8857;-72
2023/03/18 07:53:24;;;;;;;;;31.00;31.00;;;;;;;;5069811;29;8799;-72
2023/03/18 07:55:55;;;;;;;;;14.60;14.60;;;;;;;;5069514;29;9565;-73
2023/03/18 07:58:26;;;;;;;;;11.00;11.00;;;;;;;;5085775;29;8806;-73
2023/03/18 08:00:58;;;;;;;;;1.25;1.25;;;;;;;;5069405;29;11573;-72
2023/03/18 08:03:29;;;;;;;;;4.40;4.40;;;;;;;;5069759;29;11541;-73
2023/03/18 08:06:03;;;;;;;;;103.00;84.25;;;;;;;;5048092;29;8812;-72
2023/03/18 08:08:34;;;;;;;;;82.40;65.00;;;;;;;;5091560;29;8912;-74
2023/03/18 08:11:05;;;;;;;;;19.20;19.20;;;;;;;;5085903;29;8858;-72
2023/03/18 08:13:37;;;;;;;;;8.00;8.00;;;;;;;;5069600;29;8836;-72
2023/03/18 08:16:08;;;;;;;;;35.20;34.40;;;;;;;;5086473;29;8809;-72
2023/03/18 08:18:58;;;;;;;;;19.80;19.00;;;;;;;;5085387;29;8845;-72
2023/03/18 08:21:29;;;;;;;;;33.75;31.00;;;;;;;;5085321;29;8932;-72
2023/03/18 08:23:59;;;;;;;;;18.80;17.40;;;;;;;;5069660;29;10439;-72
2023/03/18 08:26:31;;;;;;;;;22.75;20.00;;;;;;;;5051790;29;8829;-72
2023/03/18 08:29:02;;;;;;;;;23.40;23.20;;;;;;;;5085507;29;8932;-73
2023/03/18 08:31:33;;;;;;;;;36.75;36.00;;;;;;;;5083752;29;8983;-72
2023/03/18 08:34:03;;;;;;;;;10.50;9.50;;;;;;;;5085695;29;8813;-72
2023/03/18 08:36:34;;;;;;;;;13.25;13.25;;;;;;;;5086011;29;11751;-72
2023/03/18 08:39:06;;;;;;;;;3.20;3.20;;;;;;;;5052511;29;11767;-72
2023/03/18 08:41:37;;;;;;;;;37.20;36.60;;;;;;;;5069102;29;8837;-72
2023/03/18 08:44:09;;;;;;;;;54.80;48.20;;;;;;;;5066564;29;8837;-73
2023/03/18 08:46:40;;;;;;;;;37.60;33.20;;;;;;;;5068418;29;9675;-72
2023/03/18 08:49:12;;;;;;;;;33.40;31.80;;;;;;;;5032690;29;8845;-72
2023/03/18 08:51:43;;;;;;;;;46.20;41.80;;;;;;;;5060619;29;8852;-73
2023/03/18 08:54:15;;;;;;;;;109.33;100.33;;;;;;;;5053464;29;8828;-72
2023/03/18 08:56:46;;;;;;;;;86.40;72.00;;;;;;;;5038286;29;12478;-72
2023/03/18 08:59:17;;;;;;;;;8.80;8.80;;;;;;;;5045302;29;8826;-72
2023/03/18 09:01:48;;;;;;;;;42.25;40.25;;;;;;;;5046014;29;8918;-72
2023/03/18 09:04:23;;;;;;;;;0.00;0.00;;;;;;;;5049212;29;11682;-71
2023/03/18 09:06:54;;;;;;;;;13.40;11.60;;;;;;;;5032982;29;8831;-74
2023/03/18 09:09:25;;;;;;;;;3.20;3.20;;;;;;;;5099686;29;8807;-71
2023/03/18 09:11:56;;;;;;;;;4.25;4.25;;;;;;;;5087394;29;8858;-70
2023/03/18 09:14:27;;;;;;;;;3.50;3.50;;;;;;;;5074068;29;11131;-68
2023/03/18 09:16:59;;;;;;;;;6.00;6.00;;;;;;;;5067798;29;8841;-69
2023/03/18 09:19:31;;;;;;;;;25.40;25.00;;;;;;;;5051422;29;8821;-70
2023/03/18 09:22:02;;;;;;;;;34.00;33.80;;;;;;;;5085385;29;9545;-68
2023/03/18 09:24:34;;;;;;;;;57.00;50.00;;;;;;;;5066829;29;8817;-68
2023/03/18 09:27:05;;;;;;;;;19.20;19.00;;;;;;;;5067875;29;8806;-69
2023/03/18 09:29:36;;;;;;;;;25.75;24.50;;;;;;;;5066132;29;8833;-69
2023/03/18 09:32:07;;;;;;;;;4.00;4.00;;;;;;;;5065413;29;8869;-71
2023/03/18 09:34:38;;;;;;;;;9.00;9.00;;;;;;;;5065838;29;9662;-69
2023/03/18 09:37:27;;;;;;;;;1.20;1.00;;;;;;;;5082816;29;8845;-68
2023/03/18 09:39:58;;;;;;;;;5.50;5.50;;;;;;;;5065729;29;8834;-70
2023/03/18 09:42:47;;;;;;;;;6.00;6.00;;;;;;;;5064863;29;8870;-66
2023/03/18 09:45:21;;;;;;;;;12.00;12.00;;;;;;;;5066139;29;8960;-66
2023/03/18 09:48:10;;;;;;;;;1.00;1.00;;;;;;;;5065871;29;8813;-66
2023/03/18 09:50:53;;;;;;;;;0.00;0.00;;;;;;;;5082134;29;8813;-66
2023/03/18 09:53:30;;;;;;;;;14.00;13.80;;;;;;;;5066119;29;8820;-67
2023/03/18 09:56:01;;;;;;;;;63.20;53.40;;;;;;;;5071676;29;9877;-67
2023/03/18 09:58:41;;;;;;;;;6.40;6.40;;;;;;;;5064464;29;8844;-66
2023/03/18 10:01:13;;;;;;;;;23.40;23.40;;;;;;;;5063983;29;8869;-67
2023/03/18 10:03:52;;;;;;;;;70.00;53.00;;;;;;;;5050409;29;8813;-67
2023/03/18 10:06:23;;;;;;;;;12.00;12.00;;;;;;;;5053567;29;8823;-67
2023/03/18 10:09:00;;;;;;;;;52.00;45.80;;;;;;;;5062757;29;8799;-67
2023/03/18 10:11:38;;;;;;;;;69.40;55.00;;;;;;;;5080680;29;8864;-67
2023/03/18 10:14:27;;;;;;;;;14.60;14.60;;;;;;;;5082537;29;8809;-65
2023/03/18 10:17:03;;;;;;;;;45.60;42.00;;;;;;;;5082844;29;9510;-66
2023/03/18 10:19:35;;;;;;;;;25.60;25.60;;;;;;;;5065820;29;8817;-67
2023/03/18 10:22:28;;;;;;;;;14.20;13.20;;;;;;;;5082673;29;8812;-66
2023/03/18 10:25:14;;;;;;;;;5.40;5.40;;;;;;;;5059782;29;8828;-69
2023/03/18 10:28:16;;;;;;;;;2.00;2.00;;;;;;;;5077320;29;8816;-69
2023/03/18 10:30:56;;;;;;;;;1.80;1.80;;;;;;;;5044743;29;8849;-69
2023/03/18 10:33:46;;;;;;;;;1.40;1.40;;;;;;;;5049122;29;8863;-69
2023/03/18 10:36:19;;;;;;;;;1.00;1.00;;;;;;;;5046186;29;8898;-83
2023/03/18 10:38:52;;;;;;;;;4.20;4.20;;;;;;;;5056948;29;8826;-76
2023/03/18 10:41:35;;;;;;;;;1.60;1.60;;;;;;;;5033162;29;8814;-76
2023/03/18 10:44:15;;;;;;;;;10.00;9.40;;;;;;;;5049392;29;8803;-76
2023/03/18 10:46:47;;;;;;;;;6.00;6.00;;;;;;;;5047988;29;8878;-77
2023/03/18 10:49:24;;;;;;;;;27.00;26.20;;;;;;;;5083896;29;8928;-78
2023/03/18 10:52:05;;;;;;;;;8.60;8.60;;;;;;;;5055695;29;8837;-79
2023/03/18 10:54:39;;;;;;;;;5.00;5.00;;;;;;;;5055491;29;8903;-77
2023/03/18 10:57:14;;;;;;;;;27.60;27.40;;;;;;;;5071082;29;8840;-77
2023/03/18 10:59:46;;;;;;;;;9.00;8.60;;;;;;;;5070626;29;8859;-76
2023/03/18 11:02:32;;;;;;;;;1.80;1.80;;;;;;;;5070378;29;8838;-77
2023/03/18 11:05:29;;;;;;;;;20.60;20.60;;;;;;;;5073650;29;8810;-78
2023/03/18 11:08:02;;;;;;;;;9.00;9.00;;;;;;;;5070351;29;9526;-77
2023/03/18 11:10:39;;;;;;;;;36.40;36.00;;;;;;;;5041551;29;8934;-76
2023/03/18 11:13:15;;;;;;;;;3.20;3.20;;;;;;;;5051286;29;8824;-76
2023/03/18 11:15:55;;;;;;;;;0.00;0.00;;;;;;;;5068038;29;8813;-76
2023/03/18 11:18:26;;;;;;;;;2.00;2.00;;;;;;;;5035645;29;8843;-76
2023/03/18 11:21:16;;;;;;;;;8.40;6.60;;;;;;;;5068139;29;8815;-78
2023/03/18 11:24:06;;;;;;;;;5.00;5.00;;;;;;;;5067805;29;9512;-79
2023/03/18 11:26:51;;;;;;;;;0.00;0.00;;;;;;;;5066683;29;10140;-78
2023/03/18 11:29:25;;;;;;;;;5.20;3.80;;;;;;;;5051419;29;8835;-78
2023/03/18 11:31:59;;;;;;;;;3.20;2.60;;;;;;;;5070195;29;8850;-78
2023/03/18 11:34:31;;;;;;;;;1.60;1.60;;;;;;;;5051074;29;8887;-77
2023/03/18 11:37:03;;;;;;;;;10.40;10.00;;;;;;;;5062636;29;8829;-77
2023/03/18 11:39:36;;;;;;;;;2.00;2.00;;;;;;;;5054882;29;8794;-77
2023/03/18 11:42:25;;;;;;;;;0.00;0.00;;;;;;;;5087205;29;8810;-77
2023/03/18 11:44:59;;;;;;;;;0.40;0.40;;;;;;;;5053737;29;8832;-78
2023/03/18 11:47:34;;;;;;;;;0.20;0.20;;;;;;;;5068805;29;8814;-79
2023/03/18 11:50:18;;;;;;;;;1.00;1.00;;;;;;;;5039154;29;8806;-78
2023/03/18 11:52:52;;;;;;;;;2.40;2.40;;;;;;;;5054158;29;8850;-79
2023/03/18 11:55:25;;;;;;;;;3.20;3.20;;;;;;;;5069745;29;8790;-77
2023/03/18 11:57:58;;;;;;;;;48.40;44.00;;;;;;;;5069328;29;8802;-77
2023/03/18 12:00:32;;;;;;;;;7.40;7.40;;;;;;;;5101705;29;8820;-80
2023/03/18 12:03:22;;;;;;;;;7.20;6.20;;;;;;;;5069060;29;8889;-76
2023/03/18 12:06:04;;;;;;;;;78.20;59.60;;;;;;;;5052423;29;8802;-77
2023/03/18 12:08:44;;;;;;;;;66.80;50.20;;;;;;;;5053944;29;8794;-77
2023/03/18 12:11:25;;;;;;;;;0.40;0.40;;;;;;;;5070485;29;8860;-78
2023/03/18 12:14:16;;;;;;;;;12.00;12.00;;;;;;;;5054386;29;9014;-77
2023/03/18 12:16:57;;;;;;;;;28.20;27.20;;;;;;;;5048766;29;8804;-76
2023/03/18 12:19:37;;;;;;;;;36.00;35.20;;;;;;;;5052794;29;8846;-76
2023/03/18 12:22:09;;;;;;;;;5.80;5.80;;;;;;;;5069177;29;8845;-76
2023/03/18 12:25:12;;;;;;;;;10.00;10.00;;;;;;;;5085081;29;8814;-77
2023/03/18 12:27:43;;;;;;;;;5.60;5.60;;;;;;;;5055818;29;8798;-76
2023/03/18 12:30:14;;;;;;;;;11.25;11.25;;;;;;;;5068228;29;8806;-76
2023/03/18 12:32:51;;;;;;;;;17.40;16.00;;;;;;;;5085454;29;8817;-76
2023/03/18 12:35:22;;;;;;;;;11.60;11.60;;;;;;;;5084526;29;8810;-76
2023/03/18 12:38:05;;;;;;;;;21.25;19.00;;;;;;;;5068574;29;8806;-73
2023/03/18 12:40:39;;;;;;;;;16.20;14.80;;;;;;;;5053082;29;12308;-76
2023/03/18 12:43:29;;;;;;;;;34.80;32.00;;;;;;;;5052962;29;8822;-75
2023/03/18 12:46:22;;;;;;;;;29.00;28.00;;;;;;;;5052842;29;8882;-77
2023/03/18 12:49:16;;;;;;;;;29.40;26.40;;;;;;;;5069235;29;9579;-78
2023/03/18 12:51:53;;;;;;;;;12.20;12.20;;;;;;;;5052965;29;9569;-72
2023/03/18 12:54:27;;;;;;;;;22.20;21.80;;;;;;;;5052693;29;9537;-77
2023/03/18 12:57:05;;;;;;;;;28.00;27.60;;;;;;;;5048788;29;8812;-76
2023/03/18 12:59:51;;;;;;;;;11.40;10.20;;;;;;;;5078586;29;8824;-74
2023/03/18 13:02:44;;;;;;;;;10.00;10.00;;;;;;;;5077020;29;8933;-77
2023/03/18 13:05:24;;;;;;;;;11.00;10.20;;;;;;;;5069134;29;8814;-77
2023/03/18 13:08:15;;;;;;;;;13.00;13.00;;;;;;;;5068124;29;8844;-76
2023/03/18 13:10:49;;;;;;;;;18.40;18.40;;;;;;;;5036562;29;8794;-77
2023/03/18 13:13:21;;;;;;;;;17.00;16.40;;;;;;;;5050180;29;8834;-75
2023/03/18 13:15:52;;;;;;;;;2.00;2.00;;;;;;;;5056084;29;8804;-78
2023/03/18 13:18:30;;;;;;;;;6.40;6.40;;;;;;;;5048938;29;8828;-78
2023/03/18 13:21:21;;;;;;;;;5.20;5.20;;;;;;;;5042323;29;8854;-80
2023/03/18 13:24:14;;;;;;;;;4.60;4.60;;;;;;;;5067511;29;8826;-80
2023/03/18 13:26:55;;;;;;;;;9.80;9.80;;;;;;;;5067745;29;8812;-80
2023/03/18 13:29:37;;;;;;;;;17.80;17.80;;;;;;;;5052277;29;8810;-81
2023/03/18 13:32:13;;;;;;;;;4.60;4.60;;;;;;;;5048057;29;8856;-78
2023/03/18 13:34:59;;;;;;;;;6.80;6.60;;;;;;;;5017926;29;8800;-79
2023/03/18 13:37:53;;;;;;;;;3.00;3.00;;;;;;;;5037238;29;8841;-79
2023/03/18 13:40:41;;;;;;;;;17.20;17.20;;;;;;;;5076104;29;8960;-78
2023/03/18 13:43:18;;;;;;;;;17.60;16.60;;;;;;;;5048237;29;8828;-76
2023/03/18 13:45:51;;;;;;;;;15.20;15.00;;;;;;;;5048397;29;8830;-76
2023/03/18 13:48:30;;;;;;;;;18.80;18.60;;;;;;;;5032682;29;8812;-76
2023/03/18 13:51:19;;;;;;;;;12.60;11.00;;;;;;;;5048446;29;8836;-77
2023/03/18 13:53:55;;;;;;;;;35.40;25.80;;;;;;;;5044978;29;8830;-78
2023/03/18 13:56:46;;;;;;;;;11.20;11.20;;;;;;;;5036324;29;8809;-77
2023/03/18 13:59:32;;;;;;;;;16.40;16.40;;;;;;;;5076765;29;8816;-77
2023/03/18 14:02:22;;;;;;;;;19.20;18.80;;;;;;;;5104182;29;8854;-77
2023/03/18 14:04:56;;;;;;;;;15.60;15.60;;;;;;;;5055896;29;8814;-78
2023/03/18 14:07:28;;;;;;;;;25.20;24.60;;;;;;;;5052201;29;8790;-78
2023/03/18 14:09:59;;;;;;;;;17.60;17.60;;;;;;;;5052103;29;8818;-77
2023/03/18 14:12:46;;;;;;;;;19.00;19.00;;;;;;;;5070892;29;8857;-78
2023/03/18 14:15:38;;;;;;;;;30.80;27.60;;;;;;;;5044143;29;8817;-79
2023/03/18 14:18:23;;;;;;;;;34.80;32.60;;;;;;;;5039812;29;8940;-80
2023/03/18 14:20:58;;;;;;;;;37.20;36.00;;;;;;;;5056007;29;9577;-78
2023/03/18 14:23:38;;;;;;;;;77.20;60.00;;;;;;;;5071371;29;8952;-76
2023/03/18 14:26:20;;;;;;;;;15.20;15.20;;;;;;;;5055866;29;8918;-76
2023/03/18 14:28:54;;;;;;;;;28.60;26.40;;;;;;;;5071127;29;9548;-77
2023/03/18 14:31:38;;;;;;;;;20.80;19.80;;;;;;;;5052023;29;8816;-76
2023/03/18 14:34:30;;;;;;;;;45.00;40.20;;;;;;;;5056163;29;9520;-76
2023/03/18 14:37:01;;;;;;;;;34.00;34.00;;;;;;;;5055560;29;8806;-79
2023/03/18 14:39:32;;;;;;;;;33.80;31.60;;;;;;;;5055456;29;8809;-76
2023/03/18 14:42:12;;;;;;;;;31.60;29.60;;;;;;;;5055108;29;8821;-76
2023/03/18 14:44:49;;;;;;;;;44.40;39.60;;;;;;;;5055080;29;8818;-75
2023/03/18 14:47:42;;;;;;;;;70.80;56.40;;;;;;;;5072651;29;8973;-76
2023/03/18 14:50:20;;;;;;;;;82.40;62.80;;;;;;;;5040975;29;8822;-76
2023/03/18 14:52:56;;;;;;;;;64.40;52.80;;;;;;;;5054532;29;8838;-75
2023/03/18 14:55:33;;;;;;;;;77.00;62.40;;;;;;;;5051545;29;8812;-77
2023/03/18 14:58:04;;;;;;;;;76.20;60.20;;;;;;;;5071037;29;8789;-76
2023/03/18 15:00:36;;;;;;;;;81.60;64.80;;;;;;;;5074366;29;8824;-78
2023/03/18 15:03:12;;;;;;;;;78.60;63.40;;;;;;;;5065912;29;8856;-75
2023/03/18 15:05:45;;;;;;;;;104.80;84.60;;;;;;;;5069980;29;8825;-76
2023/03/18 15:08:19;;;;;;;;;104.25;83.00;;;;;;;;5070465;29;9601;-76
2023/03/18 15:10:51;;;;;;;;;79.60;66.60;;;;;;;;5047667;29;8816;-75
2023/03/18 15:13:25;;;;;;;;;69.40;54.00;;;;;;;;5049360;29;8821;-77
2023/03/18 15:15:57;;;;;;;;;57.80;46.00;;;;;;;;5033728;29;8812;-76
2023/03/18 15:18:31;;;;;;;;;60.60;48.40;;;;;;;;5049091;29;8796;-77
2023/03/18 15:21:12;;;;;;;;;48.80;43.00;;;;;;;;5033186;29;8891;-76
2023/03/18 15:23:45;;;;;;;;;40.40;37.80;;;;;;;;5043647;29;8829;-76
2023/03/18 15:26:17;;;;;;;;;38.60;36.20;;;;;;;;5052353;29;8801;-81
2023/03/18 15:28:55;;;;;;;;;43.40;40.60;;;;;;;;5052936;29;8798;-81
2023/03/18 15:31:46;;;;;;;;;43.60;38.80;;;;;;;;5053140;29;8862;-80
2023/03/18 15:34:17;;;;;;;;;39.40;37.40;;;;;;;;5052120;29;8830;-78
2023/03/18 15:36:53;;;;;;;;;38.80;34.00;;;;;;;;5052311;29;8818;-77
2023/03/18 15:39:29;;;;;;;;;43.20;40.60;;;;;;;;5037294;29;8798;-75